Aérodrome :
LOGIN :

S'inscrire | Disclaimer

   EN    FR    IT 

 










Légende :    VFR   VFR Marginal   IFR   IFR Intensif   IFR Très Intensif
Visi : 
Plafond : 
>= 8 km
>= 3000ft
5 à 8 km
1000 à 3000 ft
1500m à 5 km
500 à 1000 ft
800 à 1500m
200 à 500 ft
< 800m
< 200 ft
Symboles :   Orages  Brouillard  Fortes neiges  Fortes précipitations  Vent > 20 kt
SIGMETs :   Divers  Orages  Givrage  Turbulence  Onde Orograph.  Cendres Volcan.






- Altitude de l'aérodrome : 306 ft
- Code IATA : EMA


EGNX - Nottingham East Midlands

DERNIER METAR :
  • 241150Z 29003KT 210V350 9999 FEW025 07/03 Q0994

METARs EXPIRÉS :
  • 241120Z 24004KT 200V280 9999 FEW025 06/03 Q0994
  • 241050Z 25003KT 210V280 9000 VCFG NSC 05/03 Q0994
  • 241020Z 22003KT 180V250 8000 VCFG NSC 04/03 Q0994
  • 240950Z VRB02KT 8000 VCFG NSC 03/03 Q0994
  • 240920Z VRB01KT 8000 NSC 03/02 Q0994
  • 240850Z 23004KT 8000 NSC 02/01 Q0993
  • 240820Z 22005KT 8000 VCFG NSC 01/00 Q0993
  • 240750Z 20004KT 150V210 7000 R27/0700D PRFG NSC 00/M00 Q0993

TAF TAF EGNX
Valide du 24 à 12h jusqu'au 25 à 12h UTC


241057Z 2412/2512 18004KT 9999 FEW025
PROB30
TEMPO 2415/2418 8000 -SHRA
PROB30 2503/2510 3000 BR BKN003
ATIS : +44 1332 852 852 (ext 3201)



MET'MAP, la Météo Aéronautique d'un coup d'oeil ! - Copyright ORBIFLY Décembre 2007 - Disclaimer

ORBIFLY MET'MAP TEAM :

Programmation & Développement : Alexandra Zaïnal
Sur une idée originale de : Baudouin d'Aumeries
Soutien technique & logistique : Manuel Goepfert
Assistance : Marc-Olivier Méhu




SOURCES & CREDITS :

   NOAA